Time;durP1;ratioP1;P1;durP2;ratioP2;P2;SDS_P1;SDS_P2;PMS_P1;PMS_P2;Temp;Humidity;BMP_temperature;BMP_pressure;BME280_temperature;BME280_humidity;BME280_pressure;Samples;Min_cycle;Max_cycle;Signal;HPM_P1;HPM_P2
2021/04/21 00:00:31;;;;;;;;;;;;;;;22.68;37.67;101599.13;2194783;39;116122;-56
2021/04/21 00:02:30;;;;;;;;;;;;;;;22.67;37.83;101594.66;2192105;39;114310;-60
2021/04/21 00:04:03;;;;;;;;;;;;;;;22.65;37.76;101591.28;2192435;39;115292;-56
2021/04/21 00:05:36;;;;;;;;;;;;;;;22.63;37.86;101588.78;2200465;39;115058;-59
2021/04/21 00:07:07;;;;;;;;;;;;;;;22.63;37.88;101583.13;2195393;39;114698;-55
2021/04/21 00:08:40;;;;;;;;;;;;;;;22.64;37.86;101593.28;2193117;39;115204;-56
2021/04/21 00:10:40;;;;;;;;;;;;;;;22.65;37.82;101594.09;2189926;39;114283;-56
2021/04/21 00:12:40;;;;;;;;;;;;;;;22.62;37.88;101589.94;2195322;39;114076;-55
2021/04/21 00:14:40;;;;;;;;;;;;;;;22.61;37.95;101586.28;2196238;39;113721;-55
2021/04/21 00:16:18;;;;;;;;;;;;;;;22.60;37.98;101583.75;2204604;39;115094;-55
2021/04/21 00:17:52;;;;;;;;;;;;;;;22.59;37.62;101588.56;2196266;39;115622;-56
2021/04/21 00:19:25;;;;;;;;;;;;;;;22.59;38.06;101585.75;2194274;39;115652;-57
2021/04/21 00:20:59;;;;;;;;;;;;;;;22.59;37.95;101585.75;2195412;39;115984;-54
2021/04/21 00:23:00;;;;;;;;;;;;;;;22.59;38.03;101596.16;2193075;39;113986;-57
2021/04/21 00:25:00;;;;;;;;;;;;;;;22.59;37.74;101580.09;2187231;39;114642;-57
2021/04/21 00:27:00;;;;;;;;;;;;;;;22.57;37.94;101596.50;2200147;39;114357;-57
2021/04/21 00:28:59;;;;;;;;;;;;;;;22.58;37.72;101588.84;2198247;39;114351;-58
2021/04/21 00:31:02;;;;;;;;;;;;;;;22.59;37.98;101587.72;2196265;39;114425;-56
2021/04/21 00:33:02;;;;;;;;;;;;;;;22.57;38.06;101588.03;2197903;39;114034;-59
2021/04/21 00:35:33;;;;;;;;;;;;;;;22.57;38.07;101593.69;2195869;39;114437;-57
2021/04/21 00:37:07;;;;;;;;;;;;;;;22.56;38.21;101588.34;2192525;39;115745;-58
2021/04/21 00:38:39;;;;;;;;;;;;;;;22.56;38.14;101580.72;2193394;39;115675;-57
2021/04/21 00:40:16;;;;;;;;;;;;;;;22.57;38.07;101585.22;2194016;39;115696;-58
2021/04/21 00:41:51;;;;;;;;;;;;;;;22.54;38.13;101591.44;2206045;39;115798;-56
2021/04/21 00:43:32;;;;;;;;;;;;;;;22.54;38.30;101591.44;2195603;39;114476;-58
2021/04/21 00:45:05;;;;;;;;;;;;;;;22.54;38.05;101588.63;2198461;39;113833;-56
2021/04/21 00:46:37;;;;;;;;;;;;;;;22.51;38.09;101589.25;2196558;39;113905;-55
2021/04/21 00:48:15;;;;;;;;;;;;;;;22.50;38.29;101590.41;2196060;39;114626;-58
2021/04/21 00:49:51;;;;;;;;;;;;;;;22.50;38.23;101589.56;2197498;39;114135;-58
2021/04/21 00:51:25;;;;;;;;;;;;;;;22.50;38.40;101589.56;2198685;39;113681;-59
2021/04/21 00:53:00;;;;;;;;;;;;;;;22.50;38.30;101583.94;2190966;39;114087;-55
2021/04/21 00:54:36;;;;;;;;;;;;;;;22.49;38.13;101585.91;2192396;39;114197;-60
2021/04/21 00:56:11;;;;;;;;;;;;;;;22.49;38.22;101583.09;2194138;39;113671;-55
2021/04/21 00:57:45;;;;;;;;;;;;;;;22.50;38.11;101587.56;2192863;39;113618;-55
2021/04/21 00:59:20;;;;;;;;;;;;;;;22.49;38.23;101587.88;2200001;39;114433;-57
2021/04/21 01:01:20;;;;;;;;;;;;;;;22.49;38.19;101587.88;2194803;39;114329;-56
2021/04/21 01:02:53;;;;;;;;;;;;;;;22.47;38.45;101587.38;2195393;39;114039;-56
2021/04/21 01:04:25;;;;;;;;;;;;;;;22.50;38.55;101587.56;2194262;39;114724;-58
2021/04/21 01:06:27;;;;;;;;;;;;;;;22.48;38.46;101584.25;2195558;39;113820;-58
2021/04/21 01:08:29;;;;;;;;;;;;;;;22.50;38.20;101589.56;2196027;39;113797;-58
2021/04/21 01:10:31;;;;;;;;;;;;;;;22.46;38.27;101583.72;2186485;39;114285;-56
2021/04/21 01:12:30;;;;;;;;;;;;;;;22.47;38.56;101578.91;2200265;39;115493;-59
2021/04/21 01:14:33;;;;;;;;;;;;;;;22.45;38.30;101584.00;2197015;39;114855;-57
2021/04/21 01:16:33;;;;;;;;;;;;;;;22.45;38.44;101584.84;2193059;39;113696;-56
2021/04/21 01:18:34;;;;;;;;;;;;;;;22.44;38.78;101587.97;2197223;39;114486;-55
2021/04/21 01:20:41;;;;;;;;;;;;;;;22.44;38.48;101582.34;2191201;39;113888;-57
2021/04/21 01:22:43;;;;;;;;;;;;;;;22.40;38.80;101584.91;2189976;39;113982;-56
2021/04/21 01:24:47;;;;;;;;;;;;;;;22.42;38.75;101590.25;2194807;39;114207;-55
2021/04/21 01:36:29;;;;;;;;;;;;;;;22.41;39.32;101594.22;2194144;39;113672;-56
2021/04/21 01:38:29;;;;;;;;;;;;;;;22.40;39.22;101592.53;2199143;39;114356;-57
2021/04/21 01:40:06;;;;;;;;;;;;;;;22.39;39.62;101588.06;2196108;39;116428;-58
2021/04/21 01:41:42;;;;;;;;;;;;;;;22.39;39.24;101594.53;2196528;39;115578;-57
2021/04/21 01:43:17;;;;;;;;;;;;;;;22.38;39.53;101590.03;2191066;39;115898;-57
2021/04/21 01:44:51;;;;;;;;;;;;;;;22.39;39.25;101593.69;2195736;39;116003;-55
2021/04/21 01:46:26;;;;;;;;;;;;;;;22.38;39.42;101595.66;2199560;39;115784;-56
2021/04/21 01:47:59;;;;;;;;;;;;;;;22.38;39.37;101586.38;2196438;39;115500;-57
2021/04/21 01:49:34;;;;;;;;;;;;;;;22.36;39.82;101588.66;2200932;39;115705;-58
2021/04/21 01:51:11;;;;;;;;;;;;;;;22.36;39.54;101591.47;2194963;39;115069;-58
2021/04/21 01:52:49;;;;;;;;;;;;;;;22.37;39.78;101593.16;2194753;39;115705;-56
2021/04/21 01:54:20;;;;;;;;;;;;;;;22.37;39.49;101599.63;2190452;39;115008;-59
2021/04/21 01:55:55;;;;;;;;;;;;;;;22.36;39.44;101594.28;2201357;39;116162;-58
2021/04/21 01:57:58;;;;;;;;;;;;;;;22.36;39.42;101592.31;2197510;39;114477;-57
2021/04/21 02:00:03;;;;;;;;;;;;;;;22.33;39.51;101592.94;2201200;39;114017;-58
2021/04/21 02:02:08;;;;;;;;;;;;;;;22.34;39.45;101596.59;2200548;39;115027;-57
2021/04/21 02:03:48;;;;;;;;;;;;;;;22.33;39.52;101592.94;2188936;39;114028;-58
2021/04/21 02:05:29;;;;;;;;;;;;;;;22.32;39.55;101596.03;2194199;39;114462;-56
2021/04/21 02:07:03;;;;;;;;;;;;;;;22.32;39.60;101596.03;2196153;39;113703;-55
2021/04/21 02:09:06;;;;;;;;;;;;;;;22.31;39.59;101595.19;2197418;39;114744;-55
2021/04/21 02:11:08;;;;;;;;;;;;;;;22.33;39.27;101597.72;2193153;39;114530;-60
2021/04/21 02:12:51;;;;;;;;;;;;;;;22.29;39.62;101589.06;2194841;39;114054;-59
2021/04/21 02:14:25;;;;;;;;;;;;;;;22.31;39.68;101591.53;2202842;39;114429;-57
2021/04/21 02:15:57;;;;;;;;;;;;;;;22.29;39.55;101600.31;2192398;39;113748;-55
2021/04/21 02:17:32;;;;;;;;;;;;;;;22.27;39.46;101599.78;2197573;39;115801;-60
2021/04/21 02:19:39;;;;;;;;;;;;;;;22.28;39.36;101601.44;2196590;39;114072;-55
2021/04/21 02:21:42;;;;;;;;;;;;;;;22.27;39.53;101605.41;2197255;39;113940;-58
2021/04/21 02:23:18;;;;;;;;;;;;;;;22.28;39.66;101601.44;2194965;39;114037;-57
2021/04/21 02:24:51;;;;;;;;;;;;;;;22.24;39.90;101603.19;2199127;39;113938;-61
2021/04/21 02:26:25;;;;;;;;;;;;;;;22.24;39.85;101606.03;2196434;39;114811;-55
2021/04/21 02:28:00;;;;;;;;;;;;;;;22.25;39.52;101607.69;2192487;39;115089;-57
2021/04/21 02:30:03;;;;;;;;;;;;;;;22.25;39.52;101606.84;2192869;39;114356;-56
2021/04/21 02:32:02;;;;;;;;;;;;;;;22.25;39.64;101604.03;2197851;39;113598;-57
2021/04/21 02:33:47;;;;;;;;;;;;;;;22.21;40.20;101605.78;2194247;39;114993;-58
2021/04/21 02:35:47;;;;;;;;;;;;;;;22.22;39.70;101601.81;2192789;39;113889;-56
2021/04/21 02:37:23;;;;;;;;;;;;;;;22.21;39.70;101612.28;2193745;39;115219;-58
2021/04/21 02:38:56;;;;;;;;;;;;;;;22.21;39.85;101606.63;2194899;39;115414;-58
2021/04/21 02:40:30;;;;;;;;;;;;;;;22.18;39.66;101601.59;2197684;39;115070;-55
2021/04/21 02:42:07;;;;;;;;;;;;;;;22.19;39.93;101606.09;2195401;39;115039;-59
2021/04/21 02:43:43;;;;;;;;;;;;;;;22.18;40.18;101610.03;2196452;39;115695;-54
2021/04/21 02:45:45;;;;;;;;;;;;;;;22.16;40.00;101604.72;2194415;39;113699;-57
2021/04/21 02:47:28;;;;;;;;;;;;;;;22.17;39.87;101616.81;2192738;39;114954;-58
2021/04/21 02:49:03;;;;;;;;;;;;;;;22.17;39.70;101614.81;2199086;39;115031;-55
2021/04/21 02:50:40;;;;;;;;;;;;;;;22.16;40.12;101616.00;2192153;39;115988;-58
2021/04/21 02:52:47;;;;;;;;;;;;;;;22.17;39.83;101611.16;2198299;39;114811;-54
2021/04/21 02:54:46;;;;;;;;;;;;;;;22.17;40.30;101617.63;2188487;39;114854;-56
2021/04/21 02:56:24;;;;;;;;;;;;;;;22.18;40.00;101619.31;2192623;39;115486;-55
2021/04/21 02:57:58;;;;;;;;;;;;;;;22.18;39.93;101608.06;2193764;39;115701;-58
2021/04/21 02:59:31;;;;;;;;;;;;;;;22.16;40.21;101615.16;2198466;39;115613;-55
2021/04/21 03:01:05;;;;;;;;;;;;;;;22.16;39.93;101610.34;2194838;39;115973;-55
2021/04/21 03:03:04;;;;;;;;;;;;;;;22.14;40.39;101612.63;2198426;39;113978;-58
2021/04/21 03:05:07;;;;;;;;;;;;;;;22.15;40.46;101621.91;2197388;39;114046;-55
2021/04/21 03:06:41;;;;;;;;;;;;;;;22.15;40.26;101619.09;2192988;39;114772;-56
2021/04/21 03:08:16;;;;;;;;;;;;;;;22.14;40.20;101615.44;2188768;39;115726;-59
2021/04/21 03:10:18;;;;;;;;;;;;;;;22.15;40.20;101619.09;2193576;39;114599;-59
2021/04/21 03:11:59;;;;;;;;;;;;;;;22.15;40.38;101619.09;2186989;39;115985;-58
2021/04/21 03:14:01;;;;;;;;;;;;;;;22.12;40.19;101620.53;2197207;39;114068;-56
2021/04/21 03:16:03;;;;;;;;;;;;;;;22.13;40.45;101613.75;2197168;39;113990;-58
2021/04/21 03:18:04;;;;;;;;;;;;;;;22.11;40.72;101618.03;2197415;39;113872;-55
2021/04/21 03:20:11;;;;;;;;;;;;;;;22.12;40.14;101616.91;2193079;39;113965;-58
2021/04/21 03:22:14;;;;;;;;;;;;;;;22.10;40.28;101611.56;2185846;39;114106;-58
2021/04/21 03:24:16;;;;;;;;;;;;;;;22.10;40.48;101620.00;2194238;39;113694;-59
2021/04/21 03:25:56;;;;;;;;;;;;;;;22.11;40.28;101609.59;2193258;39;113744;-56
2021/04/21 03:27:30;;;;;;;;;;;;;;;22.07;40.35;101617.81;2192415;39;114099;-55
2021/04/21 03:29:05;;;;;;;;;;;;;;;22.07;40.42;101619.78;2195612;39;114395;-55
2021/04/21 03:30:36;;;;;;;;;;;;;;;22.09;40.63;101617.47;2193265;39;113821;-57
2021/04/21 03:32:37;;;;;;;;;;;;;;;22.10;40.40;101619.16;2201401;39;114014;-58
2021/04/21 03:35:09;;;;;;;;;;;;;;;22.08;40.29;101618.63;2186560;39;113890;-57
2021/04/21 03:37:15;;;;;;;;;;;;;;;22.06;40.51;101618.09;2192218;39;114103;-56
2021/04/21 03:39:15;;;;;;;;;;;;;;;22.06;40.55;101615.28;2195712;39;113964;-60
2021/04/21 03:40:50;;;;;;;;;;;;;;;22.05;40.40;101616.41;2193137;39;113944;-58
2021/04/21 03:42:50;;;;;;;;;;;;;;;22.01;40.49;101623.78;2196346;39;115163;-56
2021/04/21 03:44:49;;;;;;;;;;;;;;;22.00;40.54;101624.94;2194961;39;113737;-58
2021/04/21 03:46:23;;;;;;;;;;;;;;;22.00;40.72;101627.75;2196808;39;114838;-56
2021/04/21 03:47:56;;;;;;;;;;;;;;;22.00;40.70;101622.13;2197282;39;115262;-56
2021/04/21 03:49:27;;;;;;;;;;;;;;;21.98;40.69;101622.44;2194922;39;114979;-59
2021/04/21 03:50:59;;;;;;;;;;;;;;;21.99;40.65;101624.09;2194040;39;115166;-55
2021/04/21 03:53:02;;;;;;;;;;;;;;;21.97;40.49;101623.56;2194215;39;114018;-59
2021/04/21 03:54:38;;;;;;;;;;;;;;;21.96;40.74;101630.31;2196412;39;115014;-55
2021/04/21 03:56:14;;;;;;;;;;;;;;;21.95;40.50;101619.38;2193065;39;114950;-56
2021/04/21 03:59:22;;;;;;;;;;;;;;;21.93;40.52;101622.50;2201142;39;115044;-56
2021/04/21 04:01:23;;;;;;;;;;;;;;;21.94;40.68;101628.97;2198949;39;114177;-54
2021/04/21 04:03:24;;;;;;;;;;;;;;;21.92;40.41;101626.41;2194570;39;113943;-56
2021/04/21 04:05:00;;;;;;;;;;;;;;;21.94;40.72;101628.97;2186337;39;115287;-57
2021/04/21 04:06:34;;;;;;;;;;;;;;;21.93;40.60;101632.91;2196549;39;115540;-56
2021/04/21 04:08:09;;;;;;;;;;;;;;;21.92;40.38;101632.03;2195747;39;115702;-61
2021/04/21 04:09:45;;;;;;;;;;;;;;;21.91;40.35;101626.69;2197428;39;116716;-54
2021/04/21 04:11:32;;;;;;;;;;;;;;;21.91;40.51;101635.97;2194214;39;115915;-57
2021/04/21 04:13:34;;;;;;;;;;;;;;;21.92;40.55;101632.03;2194909;39;114394;-56
2021/04/21 04:15:35;;;;;;;;;;;;;;;21.89;40.72;101629.00;2198942;39;114566;-59
2021/04/21 04:17:36;;;;;;;;;;;;;;;21.90;40.72;101625.03;2194517;39;114113;-55
2021/04/21 04:19:39;;;;;;;;;;;;;;;21.89;40.65;101631.81;2193896;39;114740;-55
2021/04/21 04:21:40;;;;;;;;;;;;;;;21.88;40.40;101627.31;2197818;39;114153;-58
2021/04/21 04:23:12;;;;;;;;;;;;;;;21.88;40.65;101624.50;2196708;39;116096;-58
2021/04/21 04:24:45;;;;;;;;;;;;;;;21.91;40.30;101637.97;2196274;39;115592;-56
2021/04/21 04:26:17;;;;;;;;;;;;;;;21.89;40.42;101629.00;2196063;39;115615;-56
2021/04/21 04:27:53;;;;;;;;;;;;;;;21.89;40.34;101632.66;2197602;39;114670;-58
2021/04/21 04:29:24;;;;;;;;;;;;;;;21.87;40.51;101631.25;2201399;39;115859;-56
2021/04/21 04:30:58;;;;;;;;;;;;;;;21.88;40.43;101628.16;2192241;39;115854;-56
2021/04/21 04:32:30;;;;;;;;;;;;;;;21.85;40.78;101634.38;2199488;39;113854;-57
2021/04/21 04:34:31;;;;;;;;;;;;;;;21.85;40.46;101625.94;2193322;39;114881;-58
2021/04/21 04:39:14;;;;;;;;;;;;;;;21.83;40.48;101636.66;2195027;39;114038;-57
2021/04/21 04:40:54;;;;;;;;;;;;;;;21.84;40.33;101629.06;2195534;39;113991;-58
2021/04/21 04:42:26;;;;;;;;;;;;;;;21.83;40.23;101636.66;2196536;39;114358;-56
2021/04/21 04:43:58;;;;;;;;;;;;;;;21.81;40.58;101632.44;2195063;39;114138;-56
2021/04/21 04:45:30;;;;;;;;;;;;;;;21.83;40.37;101636.66;2199521;39;114650;-54
2021/04/21 04:47:05;;;;;;;;;;;;;;;21.83;40.37;101635.81;2190690;39;114041;-57
2021/04/21 04:48:40;;;;;;;;;;;;;;;21.81;40.58;101644.53;2193991;39;114030;-56
2021/04/21 04:50:14;;;;;;;;;;;;;;;21.79;40.10;101640.38;2198182;39;114002;-57
2021/04/21 04:51:46;;;;;;;;;;;;;;;21.79;40.23;101651.63;2196981;39;114177;-58
2021/04/21 04:53:46;;;;;;;;;;;;;;;21.80;40.36;101645.72;2202544;39;114084;-56
2021/04/21 04:55:46;;;;;;;;;;;;;;;21.81;40.24;101655.81;2188022;39;113977;-56
2021/04/21 04:57:47;;;;;;;;;;;;;;;21.78;40.44;101656.41;2196270;39;113959;-56
2021/04/21 04:59:47;;;;;;;;;;;;;;;21.77;40.27;101651.06;2195223;39;114588;-60
2021/04/21 05:01:47;;;;;;;;;;;;;;;21.76;40.20;101652.22;2196003;39;114105;-59
2021/04/21 05:03:50;;;;;;;;;;;;;;;21.73;40.47;101659.28;2195233;39;114265;-56
2021/04/21 05:05:26;;;;;;;;;;;;;;;21.73;40.43;101664.91;2193535;39;115334;-57
2021/04/21 05:07:30;;;;;;;;;;;;;;;21.73;40.25;101667.72;2201336;39;114522;-57
2021/04/21 05:09:30;;;;;;;;;;;;;;;21.71;40.45;101670.00;2193583;39;113816;-56
2021/04/21 05:11:30;;;;;;;;;;;;;;;21.70;40.58;101666.34;2193830;39;114496;-58
2021/04/21 05:13:33;;;;;;;;;;;;;;;21.68;40.28;101670.59;2196017;39;114542;-57
2021/04/21 05:15:32;;;;;;;;;;;;;;;21.68;40.35;101662.16;2192471;39;114063;-56
2021/04/21 05:17:32;;;;;;;;;;;;;;;21.66;40.40;101668.09;2202243;39;113786;-57
2021/04/21 05:19:34;;;;;;;;;;;;;;;21.66;40.63;101668.09;2197470;39;117638;-54
2021/04/21 05:21:37;;;;;;;;;;;;;;;21.65;40.14;101669.22;2192968;39;113940;-59
2021/04/21 05:23:25;;;;;;;;;;;;;;;21.65;40.01;101672.03;2194555;39;115303;-56
2021/04/21 05:24:59;;;;;;;;;;;;;;;21.65;40.38;101672.03;2195095;39;114862;-57
2021/04/21 05:27:00;;;;;;;;;;;;;;;21.64;40.20;101667.53;2194580;39;114371;-57
2021/04/21 05:29:02;;;;;;;;;;;;;;;21.68;40.44;101673.41;2198517;39;114424;-59
2021/04/21 05:30:37;;;;;;;;;;;;;;;21.70;40.63;101671.97;2195532;39;115860;-56
2021/04/21 05:32:11;;;;;;;;;;;;;;;21.72;40.96;101675.31;2194905;39;115614;-58
2021/04/21 05:33:46;;;;;;;;;;;;;;;21.73;40.51;101668.56;2196090;39;115825;-56
2021/04/21 05:49:17;;;;;;;;;;;;;;;22.01;41.22;101688.53;2194348;39;115614;-56
2021/04/21 05:50:49;;;;;;;;;;;;;;;22.04;41.35;101687.91;2197211;39;115653;-56
2021/04/21 05:52:53;;;;;;;;;;;;;;;22.08;41.36;101681.38;2198524;39;114082;-59
2021/04/21 05:54:53;;;;;;;;;;;;;;;22.14;41.36;101684.97;2197077;39;113779;-55
2021/04/21 05:56:28;;;;;;;;;;;;;;;22.19;41.25;101682.09;2194948;39;114254;-57
2021/04/21 05:58:01;;;;;;;;;;;;;;;22.22;41.00;101684.28;2196975;39;114071;-55
2021/04/21 05:59:35;;;;;;;;;;;;;;;22.27;41.19;101691.81;2196553;39;114294;-58
2021/04/21 06:01:08;;;;;;;;;;;;;;;22.30;41.26;101689.28;2196954;39;114013;-58
2021/04/21 06:02:45;;;;;;;;;;;;;;;22.34;40.70;101690.34;2197859;39;113925;-57
2021/04/21 06:04:16;;;;;;;;;;;;;;;22.38;40.73;101694.22;2199826;39;114100;-58
2021/04/21 06:05:48;;;;;;;;;;;;;;;22.42;40.83;101694.44;2196886;39;113774;-59
2021/04/21 06:07:25;;;;;;;;;;;;;;;22.46;40.76;101698.31;2193224;39;114389;-59
2021/04/21 06:09:04;;;;;;;;;;;;;;;22.50;40.42;101700.22;2201568;39;115163;-57
2021/04/21 06:10:37;;;;;;;;;;;;;;;22.53;40.48;101696.78;2198293;39;113704;-60
2021/04/21 06:12:09;;;;;;;;;;;;;;;22.58;40.69;101702.34;2198913;39;114063;-59
2021/04/21 06:14:09;;;;;;;;;;;;;;;22.62;40.27;101706.25;2196857;39;114291;-55
2021/04/21 06:16:08;;;;;;;;;;;;;;;22.67;40.26;101702.50;2200929;39;113775;-59
2021/04/21 06:17:41;;;;;;;;;;;;;;;22.71;40.06;101705.63;2188484;39;114883;-59
2021/04/21 06:19:13;;;;;;;;;;;;;;;22.74;40.13;101705.84;2189068;39;115149;-57
2021/04/21 06:21:15;;;;;;;;;;;;;;;22.79;40.27;101713.38;2197246;39;113971;-58
2021/04/21 06:23:14;;;;;;;;;;;;;;;22.84;40.20;101711.31;2200295;39;114256;-57
2021/04/21 06:24:47;;;;;;;;;;;;;;;22.89;40.18;101716.88;2197622;39;114032;-56
2021/04/21 06:27:58;;;;;;;;;;;;;;;22.96;39.37;101713.66;2198825;39;115156;-56
2021/04/21 06:29:29;;;;;;;;;;;;;;;22.98;39.50;101712.22;2188902;39;115849;-54
2021/04/21 06:31:32;;;;;;;;;;;;;;;23.03;39.48;101714.13;2196385;39;113713;-59
2021/04/21 06:33:04;;;;;;;;;;;;;;;23.08;39.29;101724.47;2194334;39;115161;-58
2021/04/21 06:49:05;;;;;;;;;;;;;;;23.38;39.78;101741.72;2193242;39;114070;-55
2021/04/21 06:53:11;;;;;;;;;;;;;;;23.11;35.40;101735.13;2196611;39;114161;-57
2021/04/21 06:54:54;;;;;;;;;;;;;;;23.01;35.02;101734.16;2195868;39;114916;-55
2021/04/21 06:56:53;;;;;;;;;;;;;;;22.96;34.47;101741.84;2194845;39;114193;-56
2021/04/21 06:58:54;;;;;;;;;;;;;;;22.76;34.09;101742.16;2195755;39;114128;-56
2021/04/21 07:00:26;;;;;;;;;;;;;;;22.90;35.08;101748.69;2194732;39;115652;-56
2021/04/21 07:02:00;;;;;;;;;;;;;;;23.00;35.37;101740.91;2195477;39;115591;-55
2021/04/21 07:03:31;;;;;;;;;;;;;;;23.06;35.74;101747.31;2193330;39;116058;-54
2021/04/21 07:05:25;;;;;;;;;;;;;;;23.09;35.78;101752.34;2197806;39;115612;-55
2021/04/21 07:06:57;;;;;;;;;;;;;;;23.10;35.63;101754.03;2195060;39;115699;-58
2021/04/21 07:08:29;;;;;;;;;;;;;;;23.11;35.91;101752.03;2193098;39;114753;-55
2021/04/21 07:10:16;;;;;;;;;;;;;;;23.10;35.83;101753.19;2195981;39;115550;-57
2021/04/21 07:11:57;;;;;;;;;;;;;;;23.09;35.88;101754.31;2196625;39;115575;-56
2021/04/21 07:13:31;;;;;;;;;;;;;;;23.09;35.91;101752.34;2195290;39;116113;-56
2021/04/21 07:15:05;;;;;;;;;;;;;;;23.09;35.45;101752.34;2195285;39;114519;-57
2021/04/21 07:17:05;;;;;;;;;;;;;;;23.08;35.62;101761.94;2196312;39;114345;-53
2021/04/21 07:18:43;;;;;;;;;;;;;;;23.09;35.64;101757.97;2201118;39;114160;-55
2021/04/21 07:20:16;;;;;;;;;;;;;;;23.04;35.91;101758.06;2191305;39;113627;-54
2021/04/21 07:22:16;;;;;;;;;;;;;;;22.81;34.12;101758.97;2193739;39;114325;-55
2021/04/21 07:23:53;;;;;;;;;;;;;;;22.58;33.86;101755.88;2196352;39;113931;-60
2021/04/21 07:25:26;;;;;;;;;;;;;;;22.53;33.62;101757.94;2196533;39;114605;-58
2021/04/21 07:27:26;;;;;;;;;;;;;;;22.49;34.21;101754.88;2196850;39;114341;-54
2021/04/21 07:29:26;;;;;;;;;;;;;;;22.69;34.11;101759.41;2195522;39;113815;-56
2021/04/21 07:31:09;;;;;;;;;;;;;;;22.74;34.30;101762.19;2195353;39;114307;-54
2021/04/21 07:32:43;;;;;;;;;;;;;;;22.79;34.35;101764.94;2200280;39;113854;-56
2021/04/21 07:34:26;;;;;;;;;;;;;;;22.83;34.29;101767.97;2189669;39;114207;-53
2021/04/21 07:36:30;;;;;;;;;;;;;;;22.83;34.65;101762.34;2195837;39;114322;-54
2021/04/21 07:38:36;;;;;;;;;;;;;;;22.84;34.63;101767.69;2195623;39;114929;-56
2021/04/21 07:40:40;;;;;;;;;;;;;;;22.78;35.01;101766.06;2196825;39;115733;-56
2021/04/21 07:42:17;;;;;;;;;;;;;;;22.81;35.11;101768.25;2192212;39;115442;-53
2021/04/21 07:43:57;;;;;;;;;;;;;;;22.88;35.16;101776.34;2192777;39;114965;-53
2021/04/21 07:47:34;;;;;;;;;;;;;;;22.92;35.72;101771.78;2201436;39;115290;-57
2021/04/21 07:49:07;;;;;;;;;;;;;;;22.93;35.53;101770.66;2196375;39;113974;-56
2021/04/21 07:50:39;;;;;;;;;;;;;;;22.91;35.53;101772.91;2195496;39;115394;-54
2021/04/21 07:52:38;;;;;;;;;;;;;;;22.84;35.79;101772.47;2193809;39;113874;-54
2021/04/21 07:54:16;;;;;;;;;;;;;;;22.87;35.63;101771.84;2196927;39;114128;-56
2021/04/21 07:55:48;;;;;;;;;;;;;;;22.87;35.41;101777.50;2194861;39;114773;-56
2021/04/21 07:57:20;;;;;;;;;;;;;;;22.90;35.71;101782.50;2197565;39;114877;-55
2021/04/21 07:58:51;;;;;;;;;;;;;;;22.85;35.71;101777.78;2194429;39;115210;-55
2021/04/21 08:00:50;;;;;;;;;;;;;;;;;;2197546;39;114186;-57
2021/04/21 08:02:32;;;;;;;;;;;;;;;22.87;35.20;101778.31;2192486;39;146479;-56
2021/04/21 08:04:07;;;;;;;;;;;;;;;22.83;35.20;101785.72;2194446;39;115492;-54
2021/04/21 08:05:42;;;;;;;;;;;;;;;22.78;35.27;101779.31;2194774;39;115916;-53
2021/04/21 08:07:24;;;;;;;;;;;;;;;22.80;35.43;101783.53;2196242;39;115209;-55
2021/04/21 08:09:03;;;;;;;;;;;;;;;22.80;35.34;101777.88;2200554;39;115501;-53
2021/04/21 08:10:36;;;;;;;;;;;;;;;22.81;35.35;101784.31;2200377;39;115097;-56
2021/04/21 08:12:09;;;;;;;;;;;;;;;22.80;35.26;101788.31;2195572;39;115893;-55
2021/04/21 08:13:42;;;;;;;;;;;;;;;22.75;35.22;101779.94;2201083;39;115880;-56
2021/04/21 08:15:43;;;;;;;;;;;;;;;22.71;35.09;101785.34;2186270;39;114120;-54
2021/04/21 08:17:45;;;;;;;;;;;;;;;22.65;35.00;101780.03;2193888;39;114123;-53
2021/04/21 08:19:46;;;;;;;;;;;;;;;22.66;35.22;101788.19;2194466;39;114026;-54
2021/04/21 08:21:23;;;;;;;;;;;;;;;22.67;35.01;101791.84;2200942;39;114712;-55
2021/04/21 08:22:56;;;;;;;;;;;;;;;22.69;34.85;101798.00;2188880;39;116081;-55
2021/04/21 08:24:36;;;;;;;;;;;;;;;22.66;35.07;101798.63;2194736;39;115637;-55
2021/04/21 08:26:36;;;;;;;;;;;;;;;22.65;34.86;101792.13;2189140;39;114515;-54
2021/04/21 08:28:37;;;;;;;;;;;;;;;22.61;34.73;101793.88;2192546;39;114066;-53
2021/04/21 08:30:36;;;;;;;;;;;;;;;22.59;34.58;101794.19;2186867;39;115075;-57
2021/04/21 08:32:16;;;;;;;;;;;;;;;22.58;35.06;101797.28;2185793;39;114563;-55
2021/04/21 08:33:52;;;;;;;;;;;;;;;22.67;35.37;101789.84;2194479;39;113788;-56
2021/04/21 08:35:55;;;;;;;;;;;;;;;22.72;36.04;101794.59;2193764;39;113998;-56
2021/04/21 08:37:36;;;;;;;;;;;;;;;22.62;35.50;101802.00;2194162;39;113920;-57
2021/04/21 08:39:37;;;;;;;;;;;;;;;22.62;37.07;101799.19;2187489;39;115054;-56
2021/04/21 08:41:38;;;;;;;;;;;;;;;22.65;37.53;101806.22;2188777;39;114034;-56
2021/04/21 08:43:37;;;;;;;;;;;;;;;22.61;37.84;101806.00;2193186;39;114170;-56
2021/04/21 08:45:11;;;;;;;;;;;;;;;22.64;37.38;101807.34;2193384;39;114408;-57
2021/04/21 08:46:43;;;;;;;;;;;;;;;22.61;37.54;101807.97;2192720;39;115584;-54
2021/04/21 08:48:44;;;;;;;;;;;;;;;22.56;37.14;101810.84;2187540;39;114379;-56
2021/04/21 08:50:49;;;;;;;;;;;;;;;22.57;36.79;101818.16;2194572;39;114024;-54
2021/04/21 08:52:25;;;;;;;;;;;;;;;22.57;36.61;101816.19;2197262;39;114087;-53
2021/04/21 08:53:59;;;;;;;;;;;;;;;22.57;36.54;101819.00;2192355;39;113976;-53
2021/04/21 08:55:32;;;;;;;;;;;;;;;22.57;36.71;101818.16;2193062;39;114562;-54
2021/04/21 08:57:03;;;;;;;;;;;;;;;22.55;36.46;101821.28;2198894;39;113980;-56
2021/04/21 08:59:07;;;;;;;;;;;;;;;22.53;36.63;101815.09;2192255;39;114029;-54
2021/04/21 09:00:41;;;;;;;;;;;;;;;22.53;36.27;101820.72;2193925;39;115077;-57
2021/04/21 09:02:15;;;;;;;;;;;;;;;22.51;36.18;101822.19;2195127;39;114086;-55
2021/04/21 09:03:53;;;;;;;;;;;;;;;22.51;36.45;101825.00;2193544;39;114144;-56
2021/04/21 09:05:25;;;;;;;;;;;;;;;22.50;36.02;101815.72;2193015;39;113866;-54
2021/04/21 09:07:25;;;;;;;;;;;;;;;22.51;36.07;101823.03;2193539;39;115279;-56
2021/04/21 09:10:34;;;;;;;;;;;;;;;22.50;36.10;101820.50;2197801;39;115661;-53
2021/04/21 09:12:06;;;;;;;;;;;;;;;22.49;36.04;101816.84;2195788;39;114137;-57
2021/04/21 09:13:41;;;;;;;;;;;;;;;22.48;35.85;101818.00;2193719;39;114431;-56
2021/04/21 09:15:43;;;;;;;;;;;;;;;22.48;35.90;101820.81;2198654;39;114122;-57
2021/04/21 09:17:46;;;;;;;;;;;;;;;22.48;35.89;101826.44;2192056;39;114666;-57
2021/04/21 09:19:45;;;;;;;;;;;;;;;22.47;35.92;101830.41;2191943;39;115472;-55
2021/04/21 09:21:47;;;;;;;;;;;;;;;22.45;36.00;101829.84;2192829;39;114497;-54
2021/04/21 09:23:51;;;;;;;;;;;;;;;22.46;35.87;101825.06;2199505;39;114266;-56
2021/04/21 09:25:54;;;;;;;;;;;;;;;22.45;35.77;101829.84;2194470;39;114459;-57
2021/04/21 09:27:55;;;;;;;;;;;;;;;22.46;35.61;101833.50;2192534;39;114586;-57
2021/04/21 09:29:40;;;;;;;;;;;;;;;22.44;35.87;101832.97;2194992;39;114998;-55
2021/04/21 09:31:16;;;;;;;;;;;;;;;22.43;35.77;101843.41;2194029;39;116473;-56
2021/04/21 09:32:50;;;;;;;;;;;;;;;22.43;35.70;101840.59;2192896;39;115968;-57
2021/04/21 09:34:23;;;;;;;;;;;;;;;22.43;35.66;101845.38;2199873;39;115088;-56
2021/04/21 09:36:49;;;;;;;;;;;;;;;22.39;35.87;101845.16;2191483;39;115550;-55
2021/04/21 09:38:52;;;;;;;;;;;;;;;22.40;35.60;101846.78;2194128;39;114591;-55
2021/04/21 09:40:54;;;;;;;;;;;;;;;22.38;35.64;101851.06;2194110;39;114454;-54
2021/04/21 09:42:29;;;;;;;;;;;;;;;22.36;35.87;101848.53;2196229;39;115672;-55
2021/04/21 09:44:05;;;;;;;;;;;;;;;22.39;35.54;101849.94;2194006;39;113961;-56
2021/04/21 09:45:42;;;;;;;;;;;;;;;22.40;35.32;101848.78;2193138;39;113984;-58
2021/04/21 09:47:16;;;;;;;;;;;;;;;22.35;35.41;101848.84;2193136;39;114189;-58